Time;durP1;ratioP1;P1;durP2;ratioP2;P2;SDS_P1;SDS_P2;PMS_P1;PMS_P2;Temp;Humidity;BMP_temperature;BMP_pressure;BME280_temperature;BME280_humidity;BME280_pressure;Samples;Min_cycle;Max_cycle;Signal;HPM_P1;HPM_P2
2021/10/20 00:00:22;;;;;;;8.88;5.90;;;;;;;15.26;100.00;100368.63;5294354;28;20543;-78
2021/10/20 00:02:54;;;;;;;9.00;5.78;;;;;;;15.13;100.00;100365.00;5274751;28;20106;-78
2021/10/20 00:05:24;;;;;;;8.70;5.22;;;;;;;15.19;100.00;100362.03;5292001;28;20042;-78
2021/10/20 00:07:54;;;;;;;9.57;4.90;;;;;;;15.04;100.00;100357.66;5313537;22;20071;-83
2021/10/20 00:10:25;;;;;;;7.63;5.22;;;;;;;14.96;100.00;100358.09;5275853;28;20026;-83
2021/10/20 00:12:55;;;;;;;8.35;5.40;;;;;;;14.88;100.00;100362.91;5274956;28;20305;-83
2021/10/20 00:15:25;;;;;;;8.85;6.03;;;;;;;14.86;100.00;100358.69;5292379;28;20501;-83
2021/10/20 00:17:56;;;;;;;7.95;5.35;;;;;;;14.87;100.00;100353.31;5258534;28;20039;-83
2021/10/20 00:20:27;;;;;;;7.32;4.78;;;;;;;14.87;100.00;100355.97;5273252;28;20124;-83
2021/10/20 00:22:58;;;;;;;7.00;4.70;;;;;;;14.78;100.00;100362.69;5271723;28;20044;-81
2021/10/20 00:25:29;;;;;;;8.23;5.00;;;;;;;14.76;100.00;100340.88;5261727;28;20028;-82
2021/10/20 00:27:59;;;;;;;7.25;5.22;;;;;;;14.70;100.00;100341.22;5272906;28;20028;-82
2021/10/20 00:30:29;;;;;;;6.70;5.07;;;;;;;14.59;100.00;100348.88;5254067;28;20054;-82
2021/10/20 00:33:00;;;;;;;7.65;5.47;;;;;;;14.52;100.00;100347.50;5253777;28;20768;-82
2021/10/20 00:35:31;;;;;;;6.78;4.57;;;;;;;14.66;100.00;100344.94;5271844;28;20092;-82
2021/10/20 00:38:02;;;;;;;6.70;4.68;;;;;;;14.56;100.00;100334.09;5269840;28;20233;-82
2021/10/20 00:40:32;;;;;;;7.93;4.78;;;;;;;14.55;100.00;100326.28;5268314;28;20387;-82
2021/10/20 00:43:03;;;;;;;9.75;5.68;;;;;;;14.57;100.00;100324.44;5253108;28;20575;-82
2021/10/20 00:45:35;;;;;;;6.10;4.50;;;;;;;14.57;100.00;100321.81;5264737;28;20395;-82
2021/10/20 00:48:06;;;;;;;5.80;4.40;;;;;;;14.65;100.00;100320.44;5246777;28;20016;-82
2021/10/20 00:50:36;;;;;;;7.18;4.72;;;;;;;14.60;100.00;100305.84;5261372;28;20039;-82
2021/10/20 00:53:07;;;;;;;6.60;4.55;;;;;;;14.69;100.00;100310.56;5252567;28;20043;-82
2021/10/20 00:55:37;;;;;;;6.65;4.60;;;;;;;14.64;100.00;100299.47;5252434;28;20064;-82
2021/10/20 00:58:08;;;;;;;6.53;4.35;;;;;;;14.76;100.00;100289.09;5253215;28;20024;-82
2021/10/20 01:00:38;;;;;;;8.27;4.25;;;;;;;14.71;100.00;100279.75;5270670;28;20028;-82
2021/10/20 01:03:08;;;;;;;8.23;4.25;;;;;;;14.76;100.00;100280.38;5252555;28;20096;-82
2021/10/20 01:05:39;;;;;;;6.60;4.20;;;;;;;14.78;100.00;100278.50;5260198;28;20095;-82
2021/10/20 01:08:09;;;;;;;6.05;4.30;;;;;;;14.80;100.00;100279.25;5269523;28;20431;-82
2021/10/20 01:10:40;;;;;;;6.05;4.15;;;;;;;14.76;100.00;100273.31;5262157;28;20051;-82
2021/10/20 01:13:10;;;;;;;6.32;4.28;;;;;;;14.78;100.00;100273.25;5252548;28;20024;-82
2021/10/20 01:15:40;;;;;;;6.10;3.83;;;;;;;14.82;100.00;100264.22;5252328;28;20182;-82
2021/10/20 01:18:11;;;;;;;5.55;3.60;;;;;;;14.77;100.00;100263.66;5252176;28;20035;-82
2021/10/20 01:20:43;;;;;;;7.22;4.28;;;;;;;14.70;100.00;100257.03;5270817;28;20160;-82
2021/10/20 01:23:14;;;;;;;6.70;3.58;;;;;;;14.66;100.00;100247.63;5269767;28;20039;-82
2021/10/20 01:25:44;;;;;;;4.35;3.47;;;;;;;14.68;100.00;100249.25;5256487;28;20024;-83
2021/10/20 01:28:15;;;;;;;7.03;3.92;;;;;;;14.67;100.00;100244.91;5248780;28;20028;-82
2021/10/20 01:30:45;;;;;;;6.18;3.78;;;;;;;14.72;100.00;100240.22;5251855;28;20024;-80
2021/10/20 01:33:15;;;;;;;5.53;3.75;;;;;;;14.80;100.00;100231.91;5251420;28;20054;-82
2021/10/20 01:35:46;;;;;;;5.50;3.78;;;;;;;14.79;100.00;100231.03;5268017;28;20028;-82
2021/10/20 01:38:16;;;;;;;6.07;3.70;;;;;;;14.77;100.00;100226.81;5268352;28;20027;-82
2021/10/20 01:40:46;;;;;;;6.18;3.70;;;;;;;14.68;100.00;100225.56;5251437;28;20020;-82
2021/10/20 01:43:16;;;;;;;5.50;3.63;;;;;;;14.67;100.00;100220.38;5252091;28;20024;-82
2021/10/20 01:45:47;;;;;;;7.13;3.72;;;;;;;14.67;100.00;100215.97;5242724;28;20031;-82
2021/10/20 01:48:17;;;;;;;6.18;3.80;;;;;;;14.77;100.00;100225.00;5269185;28;20020;-82
2021/10/20 01:50:47;;;;;;;5.78;3.55;;;;;;;14.76;100.00;100219.88;5259423;28;20093;-82
2021/10/20 01:53:18;;;;;;;6.05;3.60;;;;;;;14.65;100.00;100219.63;5250978;28;20384;-82
2021/10/20 01:55:48;;;;;;;5.10;3.60;;;;;;;14.54;100.00;100209.72;5251172;28;20039;-81
2021/10/20 01:58:19;;;;;;;5.28;3.72;;;;;;;14.51;100.00;100206.41;5259813;28;20436;-82
2021/10/20 02:00:49;;;;;;;6.00;3.60;;;;;;;14.63;100.00;100210.97;5269459;28;20034;-82
2021/10/20 02:03:19;;;;;;;4.70;3.63;;;;;;;14.64;100.00;100200.38;5260503;28;20063;-82
2021/10/20 02:05:52;;;;;;;6.57;3.70;;;;;;;14.71;100.00;100195.59;5249965;28;20035;-82
2021/10/20 02:08:23;;;;;;;5.70;3.60;;;;;;;14.74;100.00;100196.25;5254100;28;20269;-81
2021/10/20 02:10:53;;;;;;;5.25;3.92;;;;;;;14.66;100.00;100200.28;5245500;28;20028;-81
2021/10/20 02:13:24;;;;;;;5.25;3.28;;;;;;;14.59;100.00;100185.81;5251010;28;20093;-82
2021/10/20 02:15:54;;;;;;;7.13;3.50;;;;;;;14.58;100.00;100178.84;5251361;28;20020;-82
2021/10/20 02:18:24;;;;;;;4.80;3.42;;;;;;;14.60;100.00;100187.50;5269044;28;20356;-82
2021/10/20 02:20:54;;;;;;;5.70;3.50;;;;;;;14.56;100.00;100178.91;5268864;28;20038;-83
2021/10/20 02:23:25;;;;;;;4.88;3.53;;;;;;;14.49;100.00;100172.34;5250654;28;20250;-82
2021/10/20 02:25:55;;;;;;;5.78;3.42;;;;;;;14.56;100.00;100170.19;5250101;28;20035;-81
2021/10/20 02:28:25;;;;;;;5.47;3.33;;;;;;;14.49;100.00;100164.44;5268590;28;20031;-82
2021/10/20 02:30:56;;;;;;;5.20;2.92;;;;;;;14.45;100.00;100168.16;5268560;28;20032;-82
2021/10/20 02:33:26;;;;;;;5.60;3.42;;;;;;;14.48;100.00;100152.25;5247461;28;20024;-82
2021/10/20 02:35:57;;;;;;;6.13;3.47;;;;;;;14.50;100.00;100150.38;5249377;28;20303;-81
2021/10/20 02:38:27;;;;;;;5.20;3.42;;;;;;;14.40;100.00;100148.34;5252022;28;20308;-81
2021/10/20 02:40:57;;;;;;;4.68;3.20;;;;;;;14.35;100.00;100142.50;5250745;28;20111;-82
2021/10/20 02:43:28;;;;;;;6.07;3.60;;;;;;;14.32;100.00;100142.69;5250883;28;20028;-82
2021/10/20 02:45:58;;;;;;;4.43;3.08;;;;;;;14.18;100.00;100140.84;5250351;28;20059;-81
2021/10/20 02:48:29;;;;;;;5.70;3.60;;;;;;;14.09;100.00;100143.94;5269252;28;20034;-81
2021/10/20 02:51:00;;;;;;;5.50;3.58;;;;;;;14.01;100.00;100129.56;5268602;28;20059;-82
2021/10/20 02:53:30;;;;;;;5.40;3.03;;;;;;;13.96;100.00;100124.59;5249892;28;20439;-82
2021/10/20 02:56:00;;;;;;;6.13;3.38;;;;;;;14.00;100.00;100125.22;5257716;28;20387;-81
2021/10/20 02:58:31;;;;;;;4.20;3.20;;;;;;;13.92;100.00;100123.03;5251012;28;20250;-81
2021/10/20 03:01:01;;;;;;;4.60;2.92;;;;;;;13.94;100.00;100121.16;5245396;28;20024;-81
2021/10/20 03:03:31;;;;;;;5.30;3.70;;;;;;;13.84;100.00;100119.16;5251158;28;20020;-81
2021/10/20 03:06:01;;;;;;;5.55;3.50;;;;;;;13.86;100.00;100112.03;5246873;28;20309;-82
2021/10/20 03:08:32;;;;;;;5.53;3.13;;;;;;;13.83;100.00;100106.94;5254142;28;20016;-82
2021/10/20 03:11:02;;;;;;;4.85;3.05;;;;;;;13.82;100.00;100111.38;5271665;28;20019;-81
2021/10/20 03:13:32;;;;;;;6.35;3.22;;;;;;;13.78;100.00;100112.44;5249118;28;20016;-82
2021/10/20 03:16:03;;;;;;;5.78;3.40;;;;;;;13.83;100.00;100104.31;5253552;28;20031;-82
2021/10/20 03:18:34;;;;;;;5.10;3.10;;;;;;;13.91;100.00;100096.88;5262464;28;20024;-82
2021/10/20 03:21:05;;;;;;;5.05;3.17;;;;;;;13.93;100.00;100097.63;5254442;28;20048;-82
2021/10/20 03:23:35;;;;;;;5.65;2.92;;;;;;;13.94;100.00;100094.91;5262413;28;20024;-82
2021/10/20 03:26:05;;;;;;;7.88;3.58;;;;;;;14.06;100.00;100096.00;5253318;28;20051;-82
2021/10/20 03:28:35;;;;;;;4.93;3.33;;;;;;;13.98;100.00;100088.56;5262924;28;20028;-82
2021/10/20 03:31:06;;;;;;;4.78;2.90;;;;;;;14.05;100.00;100084.63;5253303;28;20115;-81
2021/10/20 03:33:36;;;;;;;6.85;3.10;;;;;;;14.13;100.00;100081.56;5261687;28;20020;-82
2021/10/20 03:36:07;;;;;;;4.75;2.88;;;;;;;14.26;100.00;100072.06;5252392;28;20023;-82
2021/10/20 03:38:37;;;;;;;4.22;2.78;;;;;;;14.40;100.00;100077.38;5251477;28;20024;-81
2021/10/20 03:41:08;;;;;;;4.65;2.80;;;;;;;14.42;100.00;100068.44;5270940;28;20031;-83
2021/10/20 03:43:38;;;;;;;4.60;2.50;;;;;;;14.50;100.00;100070.63;5251658;28;20028;-81
2021/10/20 03:46:09;;;;;;;3.97;2.60;;;;;;;14.62;100.00;100069.88;5270620;28;20091;-83
2021/10/20 03:48:40;;;;;;;3.85;2.42;;;;;;;14.60;100.00;100075.22;5261615;28;20043;-82
2021/10/20 03:51:10;;;;;;;4.85;2.83;;;;;;;14.67;100.00;100075.72;5259711;28;20020;-82
2021/10/20 03:53:40;;;;;;;5.28;3.08;;;;;;;14.62;100.00;100068.09;5251045;28;20028;-82
2021/10/20 03:56:10;;;;;;;5.60;2.80;;;;;;;14.68;100.00;100074.78;5250741;28;20402;-82
2021/10/20 03:58:41;;;;;;;4.30;2.60;;;;;;;14.70;100.00;100067.63;5252023;28;20035;-82
2021/10/20 04:01:11;;;;;;;3.95;2.53;;;;;;;14.78;100.00;100065.41;5252311;28;20560;-83
2021/10/20 04:03:41;;;;;;;4.57;2.60;;;;;;;14.71;100.00;100056.16;5269271;28;20032;-82
2021/10/20 04:06:11;;;;;;;4.18;2.35;;;;;;;14.75;100.00;100052.44;5246574;28;20027;-82
2021/10/20 04:08:42;;;;;;;5.50;2.45;;;;;;;14.53;100.00;100055.50;5255345;28;20447;-83
2021/10/20 04:11:12;;;;;;;3.55;2.45;;;;;;;14.50;100.00;100052.19;5260360;28;20023;-83
2021/10/20 04:13:42;;;;;;;5.53;2.80;;;;;;;14.70;100.00;100047.44;5269395;28;20031;-81
2021/10/20 04:16:13;;;;;;;4.45;2.50;;;;;;;14.51;100.00;100040.75;5251991;28;20082;-82
2021/10/20 04:18:43;;;;;;;3.95;2.40;;;;;;;14.57;100.00;100027.25;5269759;28;20024;-83
2021/10/20 04:21:13;;;;;;;3.30;2.30;;;;;;;14.48;100.00;100040.94;5252553;28;20036;-81
2021/10/20 04:23:43;;;;;;;3.95;2.55;;;;;;;14.43;100.00;100027.22;5270592;28;20274;-83
2021/10/20 04:26:14;;;;;;;3.60;2.42;;;;;;;14.45;100.00;100039.31;5269031;28;20085;-82
2021/10/20 04:28:44;;;;;;;3.35;2.17;;;;;;;14.41;100.00;100029.94;5251455;28;20043;-81
2021/10/20 04:31:14;;;;;;;3.83;2.40;;;;;;;14.36;100.00;100020.63;5252184;28;20074;-81
2021/10/20 04:33:45;;;;;;;4.40;2.50;;;;;;;14.40;100.00;100001.13;5268514;28;20028;-82
2021/10/20 04:36:15;;;;;;;3.85;2.33;;;;;;;14.47;100.00;100002.44;5268635;28;20467;-81
2021/10/20 04:38:45;;;;;;;5.68;2.58;;;;;;;14.59;100.00;100005.16;5258332;28;20024;-81
2021/10/20 04:41:15;;;;;;;4.25;2.40;;;;;;;14.60;100.00;100008.66;5268138;28;20112;-81
2021/10/20 04:43:46;;;;;;;4.75;2.75;;;;;;;14.43;100.00;99998.31;5270445;28;20016;-81
2021/10/20 04:46:16;;;;;;;5.90;2.53;;;;;;;14.43;100.00;99991.25;5245647;28;20019;-81
2021/10/20 04:48:47;;;;;;;3.63;2.45;;;;;;;14.38;100.00;99987.19;5267326;28;20042;-81
2021/10/20 04:51:17;;;;;;;5.78;2.50;;;;;;;14.49;100.00;99985.63;5241745;28;20498;-82
2021/10/20 04:53:47;;;;;;;3.40;2.30;;;;;;;14.55;100.00;99974.72;5268861;28;20194;-81
2021/10/20 04:56:17;;;;;;;6.50;2.70;;;;;;;14.55;100.00;99985.25;5246251;28;20410;-81
2021/10/20 04:58:48;;;;;;;3.72;2.30;;;;;;;14.57;100.00;99972.03;5267775;28;20039;-81
2021/10/20 05:01:18;;;;;;;6.60;2.40;;;;;;;14.58;100.00;99969.28;5254552;28;20459;-81
2021/10/20 05:03:48;;;;;;;3.97;2.30;;;;;;;14.67;100.00;99967.88;5241544;28;20051;-81
2021/10/20 05:06:19;;;;;;;5.15;2.50;;;;;;;14.74;98.98;99961.31;5249381;28;20479;-81
2021/10/20 05:08:49;;;;;;;4.07;2.30;;;;;;;14.71;99.16;99951.81;5268050;28;20479;-81
2021/10/20 05:11:19;;;;;;;4.65;2.20;;;;;;;14.76;98.92;99954.16;5259900;28;20392;-82
2021/10/20 05:13:49;;;;;;;3.28;2.22;;;;;;;14.77;98.71;99964.56;5269183;28;20043;-82
2021/10/20 05:16:20;;;;;;;4.47;2.42;;;;;;;14.86;97.90;99954.31;5250582;28;20237;-81
2021/10/20 05:18:50;;;;;;;4.95;2.35;;;;;;;14.81;97.65;99954.72;5249898;28;20032;-82
2021/10/20 05:21:20;;;;;;;4.87;2.53;;;;;;;14.81;97.73;99950.31;5259439;28;20024;-82
2021/10/20 05:23:51;;;;;;;4.00;2.10;;;;;;;14.82;98.03;99948.50;5268723;28;20281;-82
2021/10/20 05:26:21;;;;;;;5.00;2.50;;;;;;;14.87;96.98;99949.91;5246533;28;20020;-81
2021/10/20 05:28:52;;;;;;;4.45;2.40;;;;;;;14.75;97.40;99955.09;5249956;28;20099;-80
2021/10/20 05:31:22;;;;;;;3.38;2.30;;;;;;;14.76;97.52;99947.09;5268881;28;20028;-82
2021/10/20 05:33:52;;;;;;;3.92;2.30;;;;;;;14.78;96.61;99941.75;5250820;28;20083;-81
2021/10/20 05:36:23;;;;;;;3.77;2.37;;;;;;;14.77;97.10;99954.03;5247677;28;20032;-83
2021/10/20 05:38:53;;;;;;;5.00;2.40;;;;;;;14.86;96.13;99942.97;5248788;28;20338;-82
2021/10/20 05:41:24;;;;;;;4.03;2.23;;;;;;;14.82;95.86;99950.19;5250763;28;20127;-81
2021/10/20 05:43:54;;;;;;;4.00;2.50;;;;;;;14.94;95.50;99948.56;5244538;28;20267;-82
2021/10/20 05:46:24;;;;;;;6.70;2.57;;;;;;;14.84;95.63;99945.69;5249890;28;20270;-81
2021/10/20 05:48:54;;;;;;;4.10;2.47;;;;;;;14.82;96.07;99951.13;5267099;28;20753;-81
2021/10/20 05:51:25;;;;;;;3.60;2.27;;;;;;;14.76;95.97;99951.53;5268587;28;20040;-81
2021/10/20 05:53:55;;;;;;;3.30;2.28;;;;;;;14.80;95.27;99937.25;5256882;28;20278;-80
2021/10/20 05:56:25;;;;;;;4.00;2.20;;;;;;;14.80;95.59;99937.25;5266732;28;20088;-81
2021/10/20 05:58:55;;;;;;;3.72;2.20;;;;;;;14.81;95.22;99938.94;5268618;28;20286;-83
2021/10/20 06:01:26;;;;;;;4.70;2.50;;;;;;;14.77;95.58;99932.19;5255576;28;20093;-81
2021/10/20 06:03:57;;;;;;;3.38;2.20;;;;;;;14.88;93.90;99926.13;5269976;28;20028;-81
2021/10/20 06:06:28;;;;;;;3.75;2.30;;;;;;;14.86;95.02;99932.44;5247588;28;20507;-81
2021/10/20 06:08:58;;;;;;;3.58;2.17;;;;;;;14.72;95.83;99924.56;5266563;28;20031;-81
2021/10/20 06:11:29;;;;;;;3.20;2.40;;;;;;;14.90;94.68;99929.53;5249530;28;20124;-80
2021/10/20 06:13:59;;;;;;;4.35;2.25;;;;;;;14.98;93.26;99921.97;5267388;28;20483;-81
2021/10/20 06:16:31;;;;;;;3.72;2.00;;;;;;;14.92;94.46;99930.28;5246728;28;20065;-82
2021/10/20 06:19:05;;;;;;;4.95;2.20;;;;;;;14.92;94.05;99927.63;5248821;28;20046;-81
2021/10/20 06:21:35;;;;;;;3.22;2.15;;;;;;;15.07;94.17;99931.94;5264149;28;20024;-81
2021/10/20 06:24:06;;;;;;;4.88;1.85;;;;;;;15.02;93.67;99915.56;5266736;28;20097;-81
2021/10/20 06:26:36;;;;;;;4.53;2.45;;;;;;;15.12;92.59;99929.84;5244729;28;20031;-80
2021/10/20 06:29:07;;;;;;;7.88;2.42;;;;;;;15.07;92.90;99923.19;5266882;28;20020;-81
2021/10/20 06:31:37;;;;;;;6.68;2.20;;;;;;;15.07;93.12;99915.28;5267795;28;20292;-80
2021/10/20 06:34:07;;;;;;;5.20;2.03;;;;;;;15.05;93.04;99915.38;5266115;28;20031;-80
2021/10/20 06:36:40;;;;;;;4.40;2.25;;;;;;;15.04;93.06;99910.22;5254284;28;20523;-82
2021/10/20 06:39:10;;;;;;;6.50;2.60;;;;;;;15.01;93.57;99899.91;5267113;28;20062;-81
2021/10/20 06:41:41;;;;;;;4.05;2.17;;;;;;;15.01;93.81;99905.16;5271760;28;20507;-81
2021/10/20 06:44:11;;;;;;;3.47;2.30;;;;;;;15.11;92.95;99912.34;5248589;28;20035;-81
2021/10/20 06:46:41;;;;;;;3.88;2.10;;;;;;;15.11;92.76;99912.34;5270771;28;20360;-81
2021/10/20 06:49:12;;;;;;;4.35;2.22;;;;;;;15.10;93.08;99904.53;5270894;28;20016;-81
2021/10/20 06:51:43;;;;;;;9.75;2.67;;;;;;;15.07;94.51;99900.34;5274345;28;20019;-80
2021/10/20 06:54:18;;;;;;;4.05;2.30;;;;;;;15.15;93.26;99892.78;5270411;28;20055;-80
2021/10/20 06:56:50;;;;;;;4.15;2.38;;;;;;;15.27;92.23;99893.75;5269334;28;20020;-82
2021/10/20 06:59:20;;;;;;;4.07;2.67;;;;;;;15.32;91.97;99895.19;5270536;28;20459;-81
2021/10/20 07:01:51;;;;;;;3.30;2.25;;;;;;;15.45;90.65;99890.81;5270875;28;20118;-81
2021/10/20 07:04:21;;;;;;;3.65;2.28;;;;;;;15.44;91.16;99893.53;5269868;28;20020;-79
2021/10/20 07:06:51;;;;;;;3.88;2.20;;;;;;;15.44;92.32;99897.03;5269415;28;20024;-81
2021/10/20 07:09:22;;;;;;;3.78;2.22;;;;;;;15.46;91.26;99897.78;5270633;28;20024;-81
2021/10/20 07:11:53;;;;;;;6.28;1.85;;;;;;;15.52;91.92;99899.97;5270806;28;20024;-80
2021/10/20 07:14:23;;;;;;;4.72;2.55;;;;;;;15.54;90.96;99899.91;5269441;28;20028;-82
2021/10/20 07:16:57;;;;;;;3.47;2.28;;;;;;;15.64;90.54;99901.81;5252627;28;20039;-81
2021/10/20 07:19:28;;;;;;;3.70;2.20;;;;;;;15.64;91.04;99896.53;5267700;28;20097;-81
2021/10/20 07:21:59;;;;;;;3.53;2.38;;;;;;;15.70;90.42;99885.59;5253092;28;20016;-81
2021/10/20 07:24:29;;;;;;;4.20;2.30;;;;;;;15.71;90.69;99883.81;5251789;28;20051;-81
2021/10/20 07:26:59;;;;;;;4.18;2.38;;;;;;;15.68;91.33;99876.13;5270220;28;20034;-81
2021/10/20 07:29:30;;;;;;;4.35;2.30;;;;;;;15.76;90.86;99861.47;5271565;28;20500;-81
2021/10/20 07:32:00;;;;;;;3.83;2.30;;;;;;;15.77;90.71;99857.91;5253112;28;20115;-81
2021/10/20 07:34:31;;;;;;;3.38;2.03;;;;;;;15.97;88.77;99865.28;5271394;28;20039;-81
2021/10/20 07:37:01;;;;;;;4.47;2.13;;;;;;;16.10;88.68;99860.00;5257251;28;20023;-81
2021/10/20 07:39:31;;;;;;;4.25;2.25;;;;;;;16.29;88.69;99853.34;5271925;28;20020;-81
2021/10/20 07:42:02;;;;;;;3.93;2.43;;;;;;;16.25;88.51;99856.28;5253911;28;20036;-81
2021/10/20 07:44:32;;;;;;;4.05;2.30;;;;;;;16.35;88.04;99863.47;5253007;28;20297;-81
2021/10/20 07:47:04;;;;;;;3.72;2.00;;;;;;;16.35;87.93;99860.00;5254231;28;20072;-81
2021/10/20 07:49:34;;;;;;;4.95;2.08;;;;;;;16.40;86.96;99856.06;5271980;28;20023;-81
2021/10/20 07:52:04;;;;;;;3.70;2.17;;;;;;;16.42;86.91;99843.63;5271494;28;20024;-83
2021/10/20 07:54:35;;;;;;;4.97;2.13;;;;;;;16.54;87.72;99837.47;5271309;28;20078;-81
2021/10/20 07:57:05;;;;;;;3.40;2.20;;;;;;;16.45;87.62;99817.06;5246972;28;20682;-82
2021/10/20 07:59:36;;;;;;;3.42;2.00;;;;;;;16.43;86.71;99829.50;5257164;28;20020;-81
2021/10/20 08:02:07;;;;;;;3.65;1.90;;;;;;;16.46;86.48;99821.38;5271485;28;20107;-80
2021/10/20 08:04:37;;;;;;;3.28;2.03;;;;;;;16.43;87.13;99808.41;5271132;28;20043;-81
2021/10/20 08:07:07;;;;;;;3.25;2.30;;;;;;;16.38;87.01;99812.31;5271928;28;20028;-81
2021/10/20 08:09:38;;;;;;;4.40;2.20;;;;;;;16.26;87.12;99803.47;5271038;28;20066;-82
2021/10/20 08:12:08;;;;;;;4.10;2.20;;;;;;;16.35;88.00;99794.91;5271275;28;20043;-81
2021/10/20 08:14:41;;;;;;;3.75;2.20;;;;;;;16.36;87.45;99801.88;5270998;28;20020;-81
2021/10/20 08:17:12;;;;;;;3.65;1.92;;;;;;;16.38;87.75;99810.50;5249291;28;20020;-81
2021/10/20 08:19:42;;;;;;;5.63;2.38;;;;;;;16.32;88.11;99805.66;5271624;28;20356;-81
2021/10/20 08:22:12;;;;;;;4.05;2.33;;;;;;;16.35;87.22;99808.09;5252493;28;20109;-82
2021/10/20 08:24:43;;;;;;;3.67;1.98;;;;;;;16.41;87.36;99799.72;5252301;28;20100;-81
2021/10/20 08:27:13;;;;;;;4.65;2.40;;;;;;;16.41;88.57;99791.00;5252769;28;20019;-82
2021/10/20 08:29:43;;;;;;;4.28;2.40;;;;;;;16.62;87.99;99781.53;5253161;28;20054;-81
2021/10/20 08:32:14;;;;;;;3.70;2.17;;;;;;;16.65;87.03;99784.78;5273697;28;20024;-82
2021/10/20 08:34:44;;;;;;;4.40;2.30;;;;;;;16.62;88.03;99787.66;5271762;28;20028;-83
2021/10/20 08:37:14;;;;;;;3.20;2.30;;;;;;;16.66;87.17;99761.88;5251921;28;20058;-82
2021/10/20 08:39:46;;;;;;;3.75;2.45;;;;;;;16.74;86.91;99775.38;5249482;28;20058;-82
2021/10/20 08:42:16;;;;;;;4.38;2.28;;;;;;;16.75;87.07;99788.44;5255470;28;20027;-82
2021/10/20 08:44:47;;;;;;;4.32;2.20;;;;;;;16.70;86.65;99776.56;5272926;28;20024;-82
2021/10/20 08:47:17;;;;;;;3.20;2.15;;;;;;;16.66;87.13;99785.63;5272438;28;20055;-82
2021/10/20 08:49:48;;;;;;;3.42;2.00;;;;;;;16.63;88.48;99785.84;5250415;28;20119;-81
2021/10/20 08:52:18;;;;;;;3.70;2.10;;;;;;;16.60;88.53;99778.16;5272505;28;20091;-81
2021/10/20 08:54:49;;;;;;;3.83;2.33;;;;;;;16.58;87.43;99775.63;5253908;28;20024;-82
2021/10/20 08:57:20;;;;;;;4.10;2.25;;;;;;;16.66;87.95;99781.19;5266448;28;20034;-82
2021/10/20 08:59:50;;;;;;;4.40;2.08;;;;;;;16.55;86.98;99789.03;5262548;28;20036;-83
2021/10/20 09:02:22;;;;;;;7.13;2.22;;;;;;;16.66;86.17;99797.03;5254105;28;20031;-82
2021/10/20 09:04:54;;;;;;;3.28;2.03;;;;;;;16.67;88.16;99784.66;5257433;28;20031;-82
2021/10/20 09:07:24;;;;;;;3.33;2.13;;;;;;;16.63;87.10;99783.22;5251857;28;20044;-83
2021/10/20 09:09:54;;;;;;;5.10;2.40;;;;;;;16.67;87.97;99764.41;5269735;28;20035;-82
2021/10/20 09:12:26;;;;;;;3.85;2.20;;;;;;;16.70;88.09;99756.25;5256998;28;20035;-82
2021/10/20 09:15:03;;;;;;;3.08;1.77;;;;;;;16.78;87.17;99751.28;5252973;28;20055;-83
2021/10/20 09:18:15;;;;;;;3.85;2.22;;;;;;;16.67;86.74;99722.19;5262326;28;20032;-82
2021/10/20 09:20:46;;;;;;;3.35;2.30;;;;;;;16.73;87.59;99711.16;5271766;28;20039;-83
2021/10/20 09:23:21;;;;;;;4.28;2.30;;;;;;;16.74;88.87;99697.03;5272193;28;20499;-82
2021/10/20 09:25:58;;;;;;;2.95;2.00;;;;;;;16.89;87.48;99706.44;5267758;28;20020;-81
2021/10/20 09:28:32;;;;;;;3.50;2.15;;;;;;;16.90;88.72;99687.84;5253159;28;20024;-83
2021/10/20 09:31:05;;;;;;;4.25;2.42;;;;;;;16.99;88.93;99687.16;5250867;28;20024;-81
2021/10/20 09:33:37;;;;;;;4.78;2.42;;;;;;;17.11;88.03;99673.03;5250976;28;20077;-82
2021/10/20 09:36:21;;;;;;;5.00;2.65;;;;;;;17.17;89.13;99659.34;5253928;28;20718;-82
2021/10/20 09:38:52;;;;;;;5.40;2.40;;;;;;;17.28;88.55;99643.50;5261072;28;20031;-83
2021/10/20 09:41:26;;;;;;;4.78;2.40;;;;;;;17.37;88.52;99640.22;5253656;28;20062;-83
2021/10/20 09:43:57;;;;;;;3.25;2.10;;;;;;;17.44;87.47;99635.25;5253341;28;20041;-82
2021/10/20 09:46:36;;;;;;;4.57;2.42;;;;;;;17.74;88.66;99627.56;5250557;28;20028;-83
2021/10/20 09:49:23;;;;;;;5.57;2.50;;;;;;;17.79;88.78;99612.19;5269455;28;20020;-82
2021/10/20 09:51:58;;;;;;;3.28;2.20;;;;;;;18.01;87.89;99609.50;5268097;28;20027;-83
2021/10/20 09:54:33;;;;;;;2.80;1.95;;;;;;;17.93;86.02;99611.91;5269648;28;20536;-83
2021/10/20 09:57:04;;;;;;;3.97;2.10;;;;;;;17.83;88.01;99593.28;5271006;28;20020;-83
2021/10/20 09:59:34;;;;;;;3.78;2.10;;;;;;;17.70;87.45;99587.34;5271232;28;20062;-83
2021/10/20 10:02:04;;;;;;;4.82;2.20;;;;;;;17.88;87.11;99604.38;5270696;28;20040;-83
2021/10/20 10:04:37;;;;;;;3.30;2.17;;;;;;;17.76;87.36;99605.34;5252986;28;20480;-82
2021/10/20 10:07:07;;;;;;;3.40;2.10;;;;;;;17.81;87.74;99591.75;5256376;28;20056;-81
2021/10/20 10:09:38;;;;;;;3.92;2.20;;;;;;;17.87;87.75;99596.53;5256655;28;20556;-82
2021/10/20 10:12:13;;;;;;;4.90;2.03;;;;;;;18.13;88.16;99582.03;5270973;28;20411;-82
2021/10/20 10:14:59;;;;;;;2.80;1.90;;;;;;;18.28;87.45;99588.72;5249385;28;20317;-82
2021/10/20 10:17:30;;;;;;;3.20;1.90;;;;;;;18.22;86.12;99582.13;5261152;28;20127;-81
2021/10/20 10:20:06;;;;;;;3.75;2.13;;;;;;;18.30;86.64;99585.00;5273343;28;20035;-81
2021/10/20 10:22:55;;;;;;;3.95;1.92;;;;;;;18.17;88.25;99605.44;5273224;28;20039;-83
2021/10/20 10:25:34;;;;;;;4.13;1.85;;;;;;;18.03;87.74;99604.91;5266161;28;20032;-82
2021/10/20 10:28:17;;;;;;;2.95;1.98;;;;;;;18.01;87.70;99602.38;5248013;28;20107;-82
2021/10/20 10:30:50;;;;;;;3.42;2.08;;;;;;;17.79;88.03;99589.22;5274064;28;20443;-83
2021/10/20 10:33:32;;;;;;;3.10;1.98;;;;;;;17.79;89.28;99572.53;5253137;28;20454;-82
2021/10/20 10:36:11;;;;;;;3.22;2.00;;;;;;;17.82;88.84;99565.19;5256049;28;20050;-81
2021/10/20 10:38:47;;;;;;;4.50;2.00;;;;;;;17.89;89.06;99584.03;5264382;28;20399;-82
2021/10/20 10:41:22;;;;;;;6.78;2.28;;;;;;;17.85;89.67;99593.19;5275644;28;20031;-83
2021/10/20 10:44:07;;;;;;;3.90;2.25;;;;;;;17.84;89.79;99568.53;5274305;28;20047;-82
2021/10/20 10:46:47;;;;;;;4.03;2.35;;;;;;;17.88;89.12;99567.34;5257103;28;20035;-82
2021/10/20 10:49:21;;;;;;;3.92;2.17;;;;;;;17.97;89.42;99571.03;5272887;28;20023;-81
2021/10/20 10:52:16;;;;;;;4.40;2.38;;;;;;;18.11;88.85;99562.78;5272435;28;20030;-81
2021/10/20 10:55:13;;;;;;;3.85;2.65;;;;;;;18.49;87.61;99579.03;5282967;28;20295;-81
2021/10/20 10:57:53;;;;;;;3.88;2.40;;;;;;;18.60;86.27;99550.69;5253263;28;20074;-84
2021/10/20 11:00:35;;;;;;;5.35;2.40;;;;;;;18.69;86.03;99549.06;5269983;28;20050;-81
2021/10/20 11:03:08;;;;;;;4.45;2.28;;;;;;;18.54;86.63;99534.50;5274687;28;20028;-80
2021/10/20 11:05:46;;;;;;;4.05;2.35;;;;;;;18.51;87.65;99540.03;5256493;28;20023;-82
2021/10/20 11:08:17;;;;;;;3.58;2.35;;;;;;;18.53;87.63;99533.63;5256273;28;20373;-81
2021/10/20 11:10:49;;;;;;;4.60;2.72;;;;;;;18.40;86.89;99537.47;5254400;28;20027;-80
2021/10/20 11:13:19;;;;;;;4.03;2.30;;;;;;;18.24;88.27;99524.66;5247251;28;20115;-79
2021/10/20 11:15:50;;;;;;;3.88;2.45;;;;;;;18.30;87.74;99524.16;5272712;28;20535;-82
2021/10/20 11:18:24;;;;;;;5.28;2.63;;;;;;;18.24;87.98;99510.56;5253161;28;20031;-80
2021/10/20 11:20:55;;;;;;;4.95;2.50;;;;;;;18.32;87.53;99502.88;5253697;28;20096;-81
2021/10/20 11:23:28;;;;;;;4.50;2.30;;;;;;;18.30;87.85;99495.06;5254024;28;20084;-81
2021/10/20 11:26:00;;;;;;;3.78;2.10;;;;;;;18.17;88.42;99496.19;5254768;28;20028;-82
2021/10/20 11:28:36;;;;;;;4.72;2.45;;;;;;;18.05;89.92;99483.97;5272072;28;20145;-81
2021/10/20 11:31:10;;;;;;;4.78;2.50;;;;;;;18.03;90.18;99459.47;5255909;28;20103;-81
2021/10/20 11:33:42;;;;;;;3.67;2.28;;;;;;;18.14;89.05;99475.28;5254634;28;20045;-82
2021/10/20 11:36:20;;;;;;;4.15;2.42;;;;;;;18.41;89.20;99476.47;5254905;28;20028;-82
2021/10/20 11:38:50;;;;;;;4.20;2.55;;;;;;;18.45;89.37;99475.25;5270658;28;20795;-80
2021/10/20 11:41:21;;;;;;;4.15;2.60;;;;;;;18.39;89.24;99480.22;5250126;28;20024;-80
2021/10/20 11:43:54;;;;;;;4.50;2.42;;;;;;;18.33;88.80;99478.09;5258572;28;20030;-81
2021/10/20 11:46:28;;;;;;;4.20;2.60;;;;;;;18.30;89.51;99484.47;5250046;28;20048;-81